Ana Sayfa
METAR-TAF:

METAR-TAF

Havaalanları :

Gazipaşa Havalimanı

Gazipaşa, Türkiye

Enlem: 36-17-56N, Boylam: 32-18-00E, yükseklik: 15 m

Güncel hava durumu gözlemi

Rapor saat 04:50 UTC de 48 dakika önce yapıldı.
Rüzgar doğu/güneydoğudan 5 kt
Sıcaklık 11°C
Nem 87%
Basınç 1021 hPa
Görüş mesafesi 10 km veya daha fazla
1500 m altında bulut yok ve kümülonimbus yok

METAR: LTFG 180450Z 12005KT CAVOK 11/09 Q1021

Saat: 08:38 (05:38 UTC)

Tahmin

Rapor saat 01:40 UTC de 3 saat ve 58 dakika önce yapıldı.
Ayın 18'si saat 03 UTC'den ayın 18'si saat 12 UTC'ye kadar geçerli Tahmin
Rüzgar değişken yönden 2 kt
Görüş mesafesi 10 km veya daha fazla
1500 m altında bulut yok ve kümülonimbus yok
Dönüşüyor
ayın 18'si saat 06 UTC'den ayın 18'si saat 10 UTC'ye kadar
3500 ft yükseklikte az bulutlu

TAF: LTFG 180140Z 1803/1812 VRB02KT CAVOK BECMG 1806/1810 FEW035

4.000'den fazla havaalanı için hava durumu gözlemleri ve tahminleri (METAR ve TAF raporları).

Kullanılabilir istasyonlar harita üzerinde sarı ve kırmızı noktalarla gösterilir.

İstasyonun adını görmek için fareyi noktanın üzerinde gezdirin.

Sonrasında hava gözlem ve tahminlerini görmek için tıklayın.

Haritayı değiştirmek için: yaklaştırmak için siyah artı işaretli yeşil düğmeye ve uzaklaştırmak için de eksi işaretli düğmeye hızla tıklayın; bitişik haritalar için yeşil okları kullanın.


METAR-TAF: